createdAt,value
2019-05-09T00:00:45.173Z,98487.97
2019-05-09T00:04:53.269Z,98484.62
2019-05-09T00:09:13.847Z,98485.81
2019-05-09T00:13:20.902Z,98475.64
2019-05-09T00:17:27.706Z,98476.84
2019-05-09T00:21:40.002Z,98481.70
2019-05-09T00:25:46.718Z,98476.23
2019-05-09T00:29:54.208Z,98467.60
2019-05-09T00:34:04.756Z,98476.93
2019-05-09T00:38:13.266Z,98474.15
2019-05-09T00:42:20.060Z,98474.70
2019-05-09T00:46:49.602Z,98482.55
2019-05-09T00:50:56.337Z,98478.85
2019-05-09T00:55:03.891Z,98470.25
2019-05-09T00:59:13.343Z,98463.26
2019-05-09T01:03:19.452Z,98453.90
2019-05-09T01:07:26.202Z,98460.33
2019-05-09T01:11:33.353Z,98463.09
2019-05-09T01:15:40.272Z,98457.38
2019-05-09T01:19:47.007Z,98458.20
2019-05-09T01:23:54.226Z,98457.58
2019-05-09T01:28:03.129Z,98450.38
2019-05-09T01:32:16.445Z,98451.25
2019-05-09T01:36:23.538Z,98456.14
2019-05-09T01:40:30.366Z,98455.34
2019-05-09T01:44:37.418Z,98448.75
2019-05-09T01:48:43.609Z,98445.87
2019-05-09T01:52:50.308Z,98443.88
2019-05-09T01:56:57.043Z,98441.91
2019-05-09T02:01:06.323Z,98443.05
2019-05-09T02:05:13.664Z,98446.50
2019-05-09T02:09:23.268Z,98452.03
2019-05-09T02:13:29.339Z,98450.59
2019-05-09T02:17:55.777Z,98451.44
2019-05-09T02:21:53.124Z,98452.48
2019-05-09T02:26:01.175Z,98446.28
2019-05-09T02:30:09.234Z,98448.16
2019-05-09T02:34:15.912Z,98446.00
2019-05-09T02:38:22.605Z,98452.14
2019-05-09T02:42:29.471Z,98453.25
2019-05-09T02:46:49.258Z,98456.86
2019-05-09T02:50:56.102Z,98462.60
2019-05-09T02:55:02.762Z,98471.20
2019-05-09T02:59:18.973Z,98462.72
2019-05-09T03:03:30.635Z,98463.64
2019-05-09T03:07:52.620Z,98469.56
2019-05-09T03:12:20.492Z,98466.23
2019-05-09T03:16:12.796Z,98465.31
2019-05-09T03:20:28.941Z,98465.31
2019-05-09T03:24:34.894Z,98471.52
2019-05-09T03:28:59.380Z,98475.65
2019-05-09T03:33:09.958Z,98473.77
2019-05-09T03:37:17.632Z,98478.13
2019-05-09T03:41:24.639Z,98474.31
2019-05-09T03:45:32.902Z,98476.40
2019-05-09T03:49:39.626Z,98475.99
2019-05-09T03:53:48.415Z,98477.03
2019-05-09T03:58:00.726Z,98469.95
2019-05-09T04:02:09.824Z,98473.18
2019-05-09T04:06:18.287Z,98470.11
2019-05-09T04:10:24.330Z,98465.45
2019-05-09T04:14:33.233Z,98465.92
2019-05-09T04:18:40.444Z,98462.30
2019-05-09T04:22:49.030Z,98461.17
2019-05-09T04:27:09.570Z,98465.79
2019-05-09T04:31:17.769Z,98473.57
2019-05-09T04:35:24.706Z,98468.78
2019-05-09T04:39:31.378Z,98475.61
2019-05-09T04:43:39.879Z,98473.59
2019-05-09T04:47:47.198Z,98469.83
2019-05-09T04:51:54.105Z,98463.40
2019-05-09T04:56:07.258Z,98457.38
2019-05-09T05:00:18.402Z,98459.81
2019-05-09T05:04:28.257Z,98471.53
2019-05-09T05:08:37.417Z,98477.56
2019-05-09T05:12:43.578Z,98484.52
2019-05-09T05:16:54.034Z,98484.39
2019-05-09T05:21:02.460Z,98484.11
2019-05-09T05:25:09.464Z,98484.87
2019-05-09T05:29:17.725Z,98487.45
2019-05-09T05:33:53.631Z,98487.80
2019-05-09T05:37:58.259Z,98485.78
2019-05-09T05:42:05.054Z,98490.82
2019-05-09T05:46:37.917Z,98490.97
2019-05-09T05:50:44.862Z,98484.59
2019-05-09T05:54:51.573Z,98484.73
2019-05-09T05:58:58.306Z,98482.16
2019-05-09T06:03:05.317Z,98484.05
2019-05-09T06:07:12.218Z,98491.29
2019-05-09T06:11:19.438Z,98487.88
2019-05-09T06:15:28.828Z,98483.66
2019-05-09T06:19:37.923Z,98488.89
2019-05-09T06:23:44.343Z,98481.55
2019-05-09T06:27:54.693Z,98488.19
2019-05-09T06:32:01.498Z,98494.91
2019-05-09T06:36:08.725Z,98489.59
2019-05-09T06:40:22.309Z,98484.28
2019-05-09T06:44:38.739Z,98483.61
2019-05-09T06:48:47.831Z,98496.42
2019-05-09T06:52:54.025Z,98499.28
2019-05-09T06:57:00.862Z,98500.19
2019-05-09T07:01:29.570Z,98493.80
2019-05-09T07:05:57.476Z,98499.19
2019-05-09T07:10:07.451Z,98496.41
2019-05-09T07:14:38.257Z,98500.31
2019-05-09T07:18:42.942Z,98498.50
2019-05-09T07:22:52.886Z,98503.48
2019-05-09T07:26:59.790Z,98502.13
2019-05-09T07:31:25.505Z,98496.82
2019-05-09T07:35:32.857Z,98497.23
2019-05-09T07:39:39.649Z,98496.33
2019-05-09T07:43:47.769Z,98488.34
2019-05-09T07:47:54.877Z,98496.61
2019-05-09T07:52:06.599Z,98490.59
2019-05-09T07:56:10.788Z,98495.62
2019-05-09T08:00:34.049Z,98489.84
2019-05-09T08:04:40.796Z,98493.17
2019-05-09T08:08:48.016Z,98485.36
2019-05-09T08:12:54.800Z,98468.33
2019-05-09T08:17:01.797Z,98469.86
2019-05-09T08:21:08.663Z,98466.55
2019-05-09T08:25:18.196Z,98450.89
2019-05-09T08:29:24.304Z,98456.64
2019-05-09T08:33:31.017Z,98448.17
2019-05-09T08:37:39.021Z,98444.52
2019-05-09T08:41:48.441Z,98452.64
2019-05-09T08:45:54.334Z,98468.61
2019-05-09T08:50:17.679Z,98466.83
2019-05-09T08:54:41.829Z,98467.27
2019-05-09T08:58:48.744Z,98465.80
2019-05-09T09:02:57.382Z,98459.63
2019-05-09T09:07:04.541Z,98459.17
2019-05-09T09:11:11.217Z,98462.00
2019-05-09T09:15:19.043Z,98464.30
2019-05-09T09:19:27.892Z,98465.41
2019-05-09T09:23:44.194Z,98452.47
2019-05-09T09:27:47.713Z,98456.55
2019-05-09T09:31:52.997Z,98456.09
2019-05-09T09:35:59.697Z,98457.17
2019-05-09T09:40:08.612Z,98457.47
2019-05-09T09:44:17.840Z,98447.96
2019-05-09T09:48:24.016Z,98436.48
2019-05-09T09:52:34.110Z,98435.66
2019-05-09T09:56:39.154Z,98435.78
2019-05-09T10:01:09.219Z,98432.13
2019-05-09T10:05:18.405Z,98436.81
2019-05-09T10:09:24.447Z,98431.41
2019-05-09T10:13:31.195Z,98428.20
2019-05-09T10:17:47.574Z,98425.30
2019-05-09T10:21:57.777Z,98424.50
2019-05-09T10:26:04.843Z,98415.03
2019-05-09T10:30:13.162Z,98410.78
2019-05-09T10:34:19.877Z,98416.62
2019-05-09T10:38:27.993Z,98412.40
2019-05-09T10:42:54.059Z,98412.86
2019-05-09T10:47:15.924Z,98410.57
2019-05-09T10:51:22.868Z,98405.06
2019-05-09T10:55:29.703Z,98400.94
2019-05-09T10:59:37.651Z,98400.77
2019-05-09T11:03:48.314Z,98404.20
2019-05-09T11:07:55.493Z,98401.43
2019-05-09T11:12:02.247Z,98398.51
2019-05-09T11:16:09.098Z,98394.06
2019-05-09T11:20:19.162Z,98388.89
2019-05-09T11:24:40.588Z,98386.36
2019-05-09T11:28:32.797Z,98377.08
2019-05-09T11:32:39.594Z,98374.44
2019-05-09T11:36:46.278Z,98371.39
2019-05-09T11:40:54.962Z,98377.20
2019-05-09T11:45:01.424Z,98377.63
2019-05-09T11:49:08.742Z,98370.43
2019-05-09T11:53:17.641Z,98378.48
2019-05-09T11:57:27.573Z,98383.64
2019-05-09T12:01:32.945Z,98369.05
2019-05-09T12:05:39.688Z,98367.78
2019-05-09T12:09:48.667Z,98367.05
2019-05-09T12:13:54.884Z,98366.34
2019-05-09T12:18:07.489Z,98369.37
2019-05-09T12:22:10.605Z,98351.69
2019-05-09T12:26:17.943Z,98345.38
2019-05-09T12:30:25.016Z,98344.11
2019-05-09T12:34:32.060Z,98333.88
2019-05-09T12:38:38.994Z,98338.00
2019-05-09T12:42:45.682Z,98328.03
2019-05-09T12:46:52.415Z,98331.10
2019-05-09T12:50:59.303Z,98317.24
2019-05-09T12:55:08.201Z,98323.34
2019-05-09T12:59:15.189Z,98320.68
2019-05-09T13:03:21.880Z,98312.59
2019-05-09T13:07:29.768Z,98320.08
2019-05-09T13:11:38.673Z,98313.88
2019-05-09T13:15:52.617Z,98321.50
2019-05-09T13:19:59.433Z,98312.22
2019-05-09T13:24:08.427Z,98305.36
2019-05-09T13:28:14.534Z,98307.57
2019-05-09T13:32:23.210Z,98306.06
2019-05-09T13:36:29.665Z,98302.55
2019-05-09T13:40:36.571Z,98299.33
2019-05-09T13:44:43.326Z,98298.33
2019-05-09T13:49:06.509Z,98290.12
2019-05-09T13:52:58.676Z,98287.78
2019-05-09T13:57:05.603Z,98293.61
2019-05-09T14:01:12.975Z,98298.83
2019-05-09T14:05:19.853Z,98295.21
2019-05-09T14:09:29.201Z,98285.86
2019-05-09T14:13:38.306Z,98281.28
2019-05-09T14:17:49.520Z,98286.00
2019-05-09T14:21:52.727Z,98292.55
2019-05-09T14:25:59.487Z,98298.53
2019-05-09T14:30:08.145Z,98300.51
2019-05-09T14:34:15.167Z,98298.11
2019-05-09T14:38:21.896Z,98300.17
2019-05-09T14:42:29.125Z,98307.20
2019-05-09T14:46:39.214Z,98313.51
2019-05-09T14:50:45.647Z,98309.27
2019-05-09T14:54:52.337Z,98322.97
2019-05-09T14:58:59.081Z,98320.69
2019-05-09T15:03:07.762Z,98329.23
2019-05-09T15:07:14.811Z,98317.85
2019-05-09T15:11:23.658Z,98331.53
2019-05-09T15:15:32.705Z,98337.84
2019-05-09T15:19:38.986Z,98350.21
2019-05-09T15:23:47.992Z,98358.11
2019-05-09T15:27:54.413Z,98358.59
2019-05-09T15:32:05.235Z,98374.73
2019-05-09T15:36:09.554Z,98381.78
2019-05-09T15:40:17.702Z,98390.72
2019-05-09T15:44:24.726Z,98391.70
2019-05-09T15:48:31.475Z,98398.16
2019-05-09T15:52:39.131Z,98413.48
2019-05-09T15:56:48.374Z,98416.94
2019-05-09T16:00:54.383Z,98426.61
2019-05-09T16:05:01.145Z,98434.80
2019-05-09T16:09:11.937Z,98450.25
2019-05-09T16:13:17.703Z,98457.28
2019-05-09T16:17:24.761Z,98464.41
2019-05-09T16:21:31.509Z,98459.28
2019-05-09T16:25:38.805Z,98456.31
2019-05-09T16:29:45.632Z,98486.75
2019-05-09T16:33:52.476Z,98487.91
2019-05-09T16:38:06.312Z,98493.27
2019-05-09T16:42:08.277Z,98510.87
2019-05-09T16:46:15.039Z,98509.84
2019-05-09T16:50:23.048Z,98511.66
2019-05-09T16:54:34.334Z,98521.52
2019-05-09T16:58:41.031Z,98532.23
2019-05-09T17:02:48.838Z,98542.28
2019-05-09T17:06:57.630Z,98532.76
2019-05-09T17:11:07.721Z,98545.86
2019-05-09T17:15:18.899Z,98551.92
2019-05-09T17:19:28.095Z,98552.67
2019-05-09T17:23:34.080Z,98560.05
2019-05-09T17:27:40.794Z,98559.21
2019-05-09T17:31:48.789Z,98559.21
2019-05-09T17:35:57.785Z,98565.91
2019-05-09T17:40:04.833Z,98578.25
2019-05-09T17:44:11.789Z,98585.54
2019-05-09T17:48:18.649Z,98597.34
2019-05-09T17:52:25.511Z,98598.67
2019-05-09T17:56:32.425Z,98596.96
2019-05-09T18:00:39.575Z,98605.00
2019-05-09T18:04:48.040Z,98606.16
2019-05-09T18:08:57.489Z,98617.48
2019-05-09T18:13:03.549Z,98623.97
2019-05-09T18:17:12.756Z,98637.79
2019-05-09T18:21:19.537Z,98641.30
2019-05-09T18:25:26.932Z,98645.64
2019-05-09T18:29:33.701Z,98654.36
2019-05-09T18:33:54.438Z,98661.52
2019-05-09T18:38:01.603Z,98668.43
2019-05-09T18:42:08.779Z,98668.31
2019-05-09T18:46:17.905Z,98670.91
2019-05-09T18:50:24.319Z,98679.13
2019-05-09T18:54:31.056Z,98684.13
2019-05-09T18:58:37.809Z,98686.38
2019-05-09T19:02:46.336Z,98696.22
2019-05-09T19:06:53.200Z,98699.66
2019-05-09T19:10:59.951Z,98704.42
2019-05-09T19:15:08.999Z,98707.38
2019-05-09T19:19:47.014Z,98706.50
2019-05-09T19:24:02.583Z,98719.08
2019-05-09T19:28:09.289Z,98731.05
2019-05-09T19:32:16.712Z,98733.16
2019-05-09T19:36:23.425Z,98742.55
2019-05-09T19:40:30.206Z,98749.20
2019-05-09T19:44:39.202Z,98746.54
2019-05-09T19:48:46.220Z,98753.16
2019-05-09T19:52:52.917Z,98759.02
2019-05-09T19:56:59.676Z,98760.80
2019-05-09T20:01:06.667Z,98766.94
2019-05-09T20:05:14.617Z,98769.92
2019-05-09T20:09:40.215Z,98765.41
2019-05-09T20:14:21.027Z,98775.98
2019-05-09T20:18:27.784Z,98776.59
2019-05-09T20:22:34.519Z,98790.66
2019-05-09T20:26:41.373Z,98803.67
2019-05-09T20:30:48.352Z,98801.11
2019-05-09T20:34:55.134Z,98810.13
2019-05-09T20:39:02.224Z,98824.70
2019-05-09T20:43:10.358Z,98828.96
2019-05-09T20:47:17.573Z,98847.42
2019-05-09T20:51:26.353Z,98852.80
2019-05-09T20:55:33.359Z,98854.00
2019-05-09T20:59:40.402Z,98861.47
2019-05-09T21:03:59.675Z,98869.69
2019-05-09T21:07:56.368Z,98875.30
2019-05-09T21:12:03.210Z,98889.97
2019-05-09T21:16:10.166Z,98895.19
2019-05-09T21:20:17.258Z,98898.02
2019-05-09T21:24:24.226Z,98891.72
2019-05-09T21:28:31.146Z,98894.10
2019-05-09T21:32:38.086Z,98901.38
2019-05-09T21:36:44.829Z,98908.56
2019-05-09T21:40:51.725Z,98912.16
2019-05-09T21:44:58.518Z,98920.69
2019-05-09T21:49:05.408Z,98922.92
2019-05-09T21:53:12.416Z,98947.61
2019-05-09T21:57:19.161Z,98947.29
2019-05-09T22:01:26.513Z,98957.91
2019-05-09T22:05:33.457Z,98958.73
2019-05-09T22:09:40.231Z,98967.28
2019-05-09T22:13:47.151Z,98968.64
2019-05-09T22:17:53.937Z,98978.09
2019-05-09T22:22:00.777Z,98966.63
2019-05-09T22:26:07.770Z,98969.41
2019-05-09T22:30:16.115Z,98976.95
2019-05-09T22:34:23.027Z,98982.08
2019-05-09T22:38:29.841Z,98981.03
2019-05-09T22:42:36.729Z,98988.67
2019-05-09T22:46:43.549Z,98991.48
2019-05-09T22:50:50.273Z,98987.67
2019-05-09T22:54:57.176Z,98987.28
2019-05-09T22:59:04.061Z,98986.83
2019-05-09T23:03:10.810Z,98991.78
2019-05-09T23:07:18.822Z,99002.14
2019-05-09T23:11:25.861Z,99005.39
2019-05-09T23:15:32.987Z,99012.83
2019-05-09T23:19:39.779Z,99016.97
2019-05-09T23:23:59.060Z,99015.77
2019-05-09T23:28:05.976Z,99017.20
2019-05-09T23:32:35.401Z,99015.77
2019-05-09T23:36:42.185Z,99010.70
2019-05-09T23:40:48.972Z,99007.56
2019-05-09T23:44:55.837Z,99021.99
2019-05-09T23:49:02.566Z,99028.62
2019-05-09T23:53:10.390Z,99030.23
2019-05-09T23:57:35.352Z,99032.72
